<?xml version="1.0" encoding="UTF-8" standalone="no" ?>
<gpx xmlns="http://www.topografix.com/GPX/1/1" xmlns:xsi="http://www.w3.org/2001/XMLSchema-instance" xsi:schemaLocation="http://www.topografix.com/GPX/1/1 http://www.topografix.com/GPX/1/1/gpx.xsd" version="1.1" creator="VisuGPX - https://www.visugpx.com">
  <metadata>
    <name>stcaprais jeudi 26 mars 2015</name>
    <desc><![CDATA[st caprais-margastau
 lac brichette_ malbés- jean le petit]]></desc>
  </metadata>
  <wpt lat="44.21829" lon="0.77022">
    <ele>140</ele>
    <name><![CDATA[jeudi 26 marts 2015]]></name>
    <desc><![CDATA[Hauteur de 140 m]]></desc>
    <cmt><![CDATA[Hauteur de 140 m]]></cmt>
  </wpt>
  <trk>
    <name><![CDATA[ACTIVE LOG 001]]></name>
    <trkseg>
      <trkpt lat="44.21254" lon="0.74443">
        <ele>78.965454101562</ele>
        <time>2015-03-26T13:14:36Z</time>
      </trkpt>
      <trkpt lat="44.2126" lon="0.74428">
        <ele>84.252685546875</ele>
        <time>2015-03-26T13:15:33Z</time>
      </trkpt>
      <trkpt lat="44.21259" lon="0.74429">
        <ele>84.7333984375</ele>
        <time>2015-03-26T13:16:07Z</time>
      </trkpt>
      <trkpt lat="44.21255" lon="0.74432">
        <ele>84.7333984375</ele>
        <time>2015-03-26T13:16:38Z</time>
      </trkpt>
      <trkpt lat="44.21249" lon="0.74438">
        <ele>84.252685546875</ele>
        <time>2015-03-26T13:17:11Z</time>
      </trkpt>
      <trkpt lat="44.21252" lon="0.74439">
        <ele>84.252685546875</ele>
        <time>2015-03-26T13:17:31Z</time>
      </trkpt>
      <trkpt lat="44.21265" lon="0.74434">
        <ele>84.252685546875</ele>
        <time>2015-03-26T13:17:47Z</time>
      </trkpt>
      <trkpt lat="44.2128" lon="0.74429">
        <ele>84.7333984375</ele>
        <time>2015-03-26T13:18:04Z</time>
      </trkpt>
      <trkpt lat="44.21294" lon="0.74417">
        <ele>85.213989257812</ele>
        <time>2015-03-26T13:18:19Z</time>
      </trkpt>
      <trkpt lat="44.21295" lon="0.74416">
        <ele>85.213989257812</ele>
        <time>2015-03-26T13:18:20Z</time>
      </trkpt>
      <trkpt lat="44.21297" lon="0.74414">
        <ele>84.7333984375</ele>
        <time>2015-03-26T13:18:22Z</time>
      </trkpt>
      <trkpt lat="44.21304" lon="0.74412">
        <ele>86.17529296875</ele>
        <time>2015-03-26T13:18:27Z</time>
      </trkpt>
      <trkpt lat="44.21308" lon="0.74414">
        <ele>87.6171875</ele>
        <time>2015-03-26T13:18:32Z</time>
      </trkpt>
      <trkpt lat="44.21315" lon="0.74435">
        <ele>89.059326171875</ele>
        <time>2015-03-26T13:18:44Z</time>
      </trkpt>
      <trkpt lat="44.21318" lon="0.74445">
        <ele>89.539916992188</ele>
        <time>2015-03-26T13:18:50Z</time>
      </trkpt>
      <trkpt lat="44.21324" lon="0.74465">
        <ele>92.423950195312</ele>
        <time>2015-03-26T13:19:03Z</time>
      </trkpt>
      <trkpt lat="44.21326" lon="0.74468">
        <ele>92.904541015625</ele>
        <time>2015-03-26T13:19:05Z</time>
      </trkpt>
      <trkpt lat="44.21333" lon="0.74479">
        <ele>94.346557617188</ele>
        <time>2015-03-26T13:19:14Z</time>
      </trkpt>
      <trkpt lat="44.21345" lon="0.74507">
        <ele>97.23046875</ele>
        <time>2015-03-26T13:19:33Z</time>
      </trkpt>
      <trkpt lat="44.21347" lon="0.74517">
        <ele>99.153076171875</ele>
        <time>2015-03-26T13:19:40Z</time>
      </trkpt>
      <trkpt lat="44.21347" lon="0.74519">
        <ele>99.6337890625</ele>
        <time>2015-03-26T13:19:42Z</time>
      </trkpt>
      <trkpt lat="44.21351" lon="0.74531">
        <ele>102.51770019531</ele>
        <time>2015-03-26T13:19:51Z</time>
      </trkpt>
      <trkpt lat="44.21352" lon="0.74539">
        <ele>102.51770019531</ele>
        <time>2015-03-26T13:19:55Z</time>
      </trkpt>
      <trkpt lat="44.21363" lon="0.74537">
        <ele>99.153076171875</ele>
        <time>2015-03-26T13:20:01Z</time>
      </trkpt>
      <trkpt lat="44.21375" lon="0.7453">
        <ele>94.346557617188</ele>
        <time>2015-03-26T13:20:13Z</time>
      </trkpt>
      <trkpt lat="44.2138" lon="0.74528">
        <ele>94.8271484375</ele>
        <time>2015-03-26T13:20:17Z</time>
      </trkpt>
      <trkpt lat="44.21396" lon="0.74519">
        <ele>95.788452148438</ele>
        <time>2015-03-26T13:20:35Z</time>
      </trkpt>
      <trkpt lat="44.21411" lon="0.74508">
        <ele>96.749877929688</ele>
        <time>2015-03-26T13:20:55Z</time>
      </trkpt>
      <trkpt lat="44.21423" lon="0.74505">
        <ele>98.19189453125</ele>
        <time>2015-03-26T13:21:13Z</time>
      </trkpt>
      <trkpt lat="44.21443" lon="0.74512">
        <ele>100.11450195312</ele>
        <time>2015-03-26T13:21:36Z</time>
      </trkpt>
      <trkpt lat="44.21446" lon="0.74513">
        <ele>100.59509277344</ele>
        <time>2015-03-26T13:21:40Z</time>
      </trkpt>
      <trkpt lat="44.21463" lon="0.7452">
        <ele>99.6337890625</ele>
        <time>2015-03-26T13:21:59Z</time>
      </trkpt>
      <trkpt lat="44.21469" lon="0.7452">
        <ele>98.672485351562</ele>
        <time>2015-03-26T13:22:06Z</time>
      </trkpt>
      <trkpt lat="44.21484" lon="0.74527">
        <ele>101.55639648438</ele>
        <time>2015-03-26T13:22:21Z</time>
      </trkpt>
      <trkpt lat="44.21505" lon="0.74535">
        <ele>99.6337890625</ele>
        <time>2015-03-26T13:22:39Z</time>
      </trkpt>
      <trkpt lat="44.21518" lon="0.74543">
        <ele>100.11450195312</ele>
        <time>2015-03-26T13:22:56Z</time>
      </trkpt>
      <trkpt lat="44.21533" lon="0.74563">
        <ele>98.672485351562</ele>
        <time>2015-03-26T13:23:14Z</time>
      </trkpt>
      <trkpt lat="44.2155" lon="0.74585">
        <ele>98.19189453125</ele>
        <time>2015-03-26T13:23:34Z</time>
      </trkpt>
      <trkpt lat="44.21569" lon="0.74599">
        <ele>97.711181640625</ele>
        <time>2015-03-26T13:23:54Z</time>
      </trkpt>
      <trkpt lat="44.21589" lon="0.74617">
        <ele>100.59509277344</ele>
        <time>2015-03-26T13:24:15Z</time>
      </trkpt>
      <trkpt lat="44.2159" lon="0.74617">
        <ele>100.59509277344</ele>
        <time>2015-03-26T13:24:16Z</time>
      </trkpt>
      <trkpt lat="44.21606" lon="0.7463">
        <ele>101.07568359375</ele>
        <time>2015-03-26T13:24:33Z</time>
      </trkpt>
      <trkpt lat="44.21619" lon="0.74642">
        <ele>101.55639648438</ele>
        <time>2015-03-26T13:24:48Z</time>
      </trkpt>
      <trkpt lat="44.21643" lon="0.74669">
        <ele>104.4404296875</ele>
        <time>2015-03-26T13:25:17Z</time>
      </trkpt>
      <trkpt lat="44.21653" lon="0.74685">
        <ele>110.68884277344</ele>
        <time>2015-03-26T13:25:32Z</time>
      </trkpt>
      <trkpt lat="44.21668" lon="0.74706">
        <ele>112.61157226562</ele>
        <time>2015-03-26T13:25:52Z</time>
      </trkpt>
      <trkpt lat="44.21686" lon="0.74728">
        <ele>112.13098144531</ele>
        <time>2015-03-26T13:26:16Z</time>
      </trkpt>
      <trkpt lat="44.21697" lon="0.74739">
        <ele>114.05358886719</ele>
        <time>2015-03-26T13:26:33Z</time>
      </trkpt>
      <trkpt lat="44.21703" lon="0.74748">
        <ele>117.41821289062</ele>
        <time>2015-03-26T13:26:49Z</time>
      </trkpt>
      <trkpt lat="44.21714" lon="0.74762">
        <ele>119.82141113281</ele>
        <time>2015-03-26T13:27:05Z</time>
      </trkpt>
      <trkpt lat="44.21718" lon="0.74771">
        <ele>121.744140625</ele>
        <time>2015-03-26T13:27:19Z</time>
      </trkpt>
      <trkpt lat="44.21723" lon="0.74783">
        <ele>124.14733886719</ele>
        <time>2015-03-26T13:27:35Z</time>
      </trkpt>
      <trkpt lat="44.21726" lon="0.74785">
        <ele>124.62805175781</ele>
        <time>2015-03-26T13:27:40Z</time>
      </trkpt>
      <trkpt lat="44.21734" lon="0.74792">
        <ele>123.66674804688</ele>
        <time>2015-03-26T13:27:55Z</time>
      </trkpt>
      <trkpt lat="44.21739" lon="0.74806">
        <ele>125.10876464844</ele>
        <time>2015-03-26T13:28:16Z</time>
      </trkpt>
      <trkpt lat="44.2175" lon="0.74815">
        <ele>127.03137207031</ele>
        <time>2015-03-26T13:28:39Z</time>
      </trkpt>
      <trkpt lat="44.21755" lon="0.74822">
        <ele>129.43469238281</ele>
        <time>2015-03-26T13:28:58Z</time>
      </trkpt>
      <trkpt lat="44.21766" lon="0.74828">
        <ele>130.87670898438</ele>
        <time>2015-03-26T13:29:18Z</time>
      </trkpt>
      <trkpt lat="44.21784" lon="0.74845">
        <ele>129.91528320312</ele>
        <time>2015-03-26T13:29:42Z</time>
      </trkpt>
      <trkpt lat="44.21804" lon="0.74853">
        <ele>129.91528320312</ele>
        <time>2015-03-26T13:30:03Z</time>
      </trkpt>
      <trkpt lat="44.2183" lon="0.74861">
        <ele>132.79931640625</ele>
        <time>2015-03-26T13:30:29Z</time>
      </trkpt>
      <trkpt lat="44.21848" lon="0.74865">
        <ele>133.76049804688</ele>
        <time>2015-03-26T13:30:47Z</time>
      </trkpt>
      <trkpt lat="44.21869" lon="0.74872">
        <ele>134.72192382812</ele>
        <time>2015-03-26T13:31:09Z</time>
      </trkpt>
      <trkpt lat="44.21882" lon="0.74894">
        <ele>131.837890625</ele>
        <time>2015-03-26T13:31:34Z</time>
      </trkpt>
      <trkpt lat="44.21895" lon="0.74915">
        <ele>130.87670898438</ele>
        <time>2015-03-26T13:31:56Z</time>
      </trkpt>
      <trkpt lat="44.219" lon="0.7494">
        <ele>127.99255371094</ele>
        <time>2015-03-26T13:32:20Z</time>
      </trkpt>
      <trkpt lat="44.21898" lon="0.74971">
        <ele>123.66674804688</ele>
        <time>2015-03-26T13:32:49Z</time>
      </trkpt>
      <trkpt lat="44.21899" lon="0.75002">
        <ele>121.26354980469</ele>
        <time>2015-03-26T13:33:18Z</time>
      </trkpt>
      <trkpt lat="44.219" lon="0.75012">
        <ele>120.78283691406</ele>
        <time>2015-03-26T13:33:26Z</time>
      </trkpt>
      <trkpt lat="44.21905" lon="0.75042">
        <ele>117.41821289062</ele>
        <time>2015-03-26T13:33:47Z</time>
      </trkpt>
      <trkpt lat="44.21929" lon="0.75068">
        <ele>116.45678710938</ele>
        <time>2015-03-26T13:34:17Z</time>
      </trkpt>
      <trkpt lat="44.21934" lon="0.75092">
        <ele>115.01489257812</ele>
        <time>2015-03-26T13:34:38Z</time>
      </trkpt>
      <trkpt lat="44.21927" lon="0.75105">
        <ele>113.57299804688</ele>
        <time>2015-03-26T13:34:51Z</time>
      </trkpt>
      <trkpt lat="44.21914" lon="0.75123">
        <ele>111.16955566406</ele>
        <time>2015-03-26T13:35:16Z</time>
      </trkpt>
      <trkpt lat="44.21908" lon="0.75125">
        <ele>110.68884277344</ele>
        <time>2015-03-26T13:35:37Z</time>
      </trkpt>
      <trkpt lat="44.21907" lon="0.75128">
        <ele>109.24694824219</ele>
        <time>2015-03-26T13:35:54Z</time>
      </trkpt>
      <trkpt lat="44.21915" lon="0.75132">
        <ele>108.28564453125</ele>
        <time>2015-03-26T13:36:09Z</time>
      </trkpt>
      <trkpt lat="44.21913" lon="0.75142">
        <ele>107.80505371094</ele>
        <time>2015-03-26T13:36:24Z</time>
      </trkpt>
      <trkpt lat="44.21902" lon="0.7516">
        <ele>104.92102050781</ele>
        <time>2015-03-26T13:36:46Z</time>
      </trkpt>
      <trkpt lat="44.21891" lon="0.75186">
        <ele>103.47900390625</ele>
        <time>2015-03-26T13:37:09Z</time>
      </trkpt>
      <trkpt lat="44.21879" lon="0.75213">
        <ele>100.59509277344</ele>
        <time>2015-03-26T13:37:32Z</time>
      </trkpt>
      <trkpt lat="44.21868" lon="0.75239">
        <ele>97.23046875</ele>
        <time>2015-03-26T13:37:55Z</time>
      </trkpt>
      <trkpt lat="44.21855" lon="0.75264">
        <ele>97.711181640625</ele>
        <time>2015-03-26T13:38:17Z</time>
      </trkpt>
      <trkpt lat="44.21854" lon="0.75265">
        <ele>97.711181640625</ele>
        <time>2015-03-26T13:38:18Z</time>
      </trkpt>
      <trkpt lat="44.21852" lon="0.75272">
        <ele>97.711181640625</ele>
        <time>2015-03-26T13:38:26Z</time>
      </trkpt>
      <trkpt lat="44.21849" lon="0.75286">
        <ele>96.269287109375</ele>
        <time>2015-03-26T13:38:43Z</time>
      </trkpt>
      <trkpt lat="44.21849" lon="0.75293">
        <ele>95.307739257812</ele>
        <time>2015-03-26T13:38:48Z</time>
      </trkpt>
      <trkpt lat="44.21851" lon="0.75296">
        <ele>95.307739257812</ele>
        <time>2015-03-26T13:38:51Z</time>
      </trkpt>
      <trkpt lat="44.21866" lon="0.75319">
        <ele>95.307739257812</ele>
        <time>2015-03-26T13:39:14Z</time>
      </trkpt>
      <trkpt lat="44.21873" lon="0.75329">
        <ele>94.8271484375</ele>
        <time>2015-03-26T13:39:29Z</time>
      </trkpt>
      <trkpt lat="44.21869" lon="0.75336">
        <ele>99.153076171875</ele>
        <time>2015-03-26T13:39:40Z</time>
      </trkpt>
      <trkpt lat="44.21865" lon="0.75349">
        <ele>104.4404296875</ele>
        <time>2015-03-26T13:39:54Z</time>
      </trkpt>
      <trkpt lat="44.21864" lon="0.75358">
        <ele>107.80505371094</ele>
        <time>2015-03-26T13:40:15Z</time>
      </trkpt>
      <trkpt lat="44.21863" lon="0.75364">
        <ele>108.76623535156</ele>
        <time>2015-03-26T13:40:33Z</time>
      </trkpt>
      <trkpt lat="44.21863" lon="0.75371">
        <ele>109.24694824219</ele>
        <time>2015-03-26T13:40:50Z</time>
      </trkpt>
      <trkpt lat="44.2186" lon="0.75379">
        <ele>109.72766113281</ele>
        <time>2015-03-26T13:41:14Z</time>
      </trkpt>
      <trkpt lat="44.21857" lon="0.75392">
        <ele>111.16955566406</ele>
        <time>2015-03-26T13:41:38Z</time>
      </trkpt>
      <trkpt lat="44.21855" lon="0.75397">
        <ele>110.20825195312</ele>
        <time>2015-03-26T13:41:54Z</time>
      </trkpt>
      <trkpt lat="44.21852" lon="0.75409">
        <ele>113.09228515625</ele>
        <time>2015-03-26T13:42:15Z</time>
      </trkpt>
      <trkpt lat="44.2185" lon="0.75416">
        <ele>115.49560546875</ele>
        <time>2015-03-26T13:42:36Z</time>
      </trkpt>
      <trkpt lat="44.21848" lon="0.75426">
        <ele>116.45678710938</ele>
        <time>2015-03-26T13:43:53Z</time>
      </trkpt>
      <trkpt lat="44.21845" lon="0.75448">
        <ele>118.37939453125</ele>
        <time>2015-03-26T13:44:14Z</time>
      </trkpt>
      <trkpt lat="44.2184" lon="0.75474">
        <ele>120.30212402344</ele>
        <time>2015-03-26T13:44:40Z</time>
      </trkpt>
      <trkpt lat="44.21836" lon="0.75492">
        <ele>121.26354980469</ele>
        <time>2015-03-26T13:45:00Z</time>
      </trkpt>
      <trkpt lat="44.21835" lon="0.75503">
        <ele>122.22473144531</ele>
        <time>2015-03-26T13:45:20Z</time>
      </trkpt>
      <trkpt lat="44.21833" lon="0.75507">
        <ele>123.66674804688</ele>
        <time>2015-03-26T13:45:38Z</time>
      </trkpt>
      <trkpt lat="44.21824" lon="0.75513">
        <ele>124.62805175781</ele>
        <time>2015-03-26T13:45:57Z</time>
      </trkpt>
      <trkpt lat="44.21817" lon="0.75524">
        <ele>125.58935546875</ele>
        <time>2015-03-26T13:46:18Z</time>
      </trkpt>
      <trkpt lat="44.21817" lon="0.75535">
        <ele>127.51196289062</ele>
        <time>2015-03-26T13:46:37Z</time>
      </trkpt>
      <trkpt lat="44.2183" lon="0.75526">
        <ele>131.35729980469</ele>
        <time>2015-03-26T13:46:58Z</time>
      </trkpt>
      <trkpt lat="44.21834" lon="0.75534">
        <ele>134.72192382812</ele>
        <time>2015-03-26T13:47:15Z</time>
      </trkpt>
      <trkpt lat="44.21836" lon="0.75547">
        <ele>136.16394042969</ele>
        <time>2015-03-26T13:47:31Z</time>
      </trkpt>
      <trkpt lat="44.21828" lon="0.75564">
        <ele>135.20251464844</ele>
        <time>2015-03-26T13:47:49Z</time>
      </trkpt>
      <trkpt lat="44.21828" lon="0.75564">
        <ele>135.20251464844</ele>
        <time>2015-03-26T13:47:50Z</time>
      </trkpt>
      <trkpt lat="44.21823" lon="0.75576">
        <ele>136.64465332031</ele>
        <time>2015-03-26T13:48:03Z</time>
      </trkpt>
      <trkpt lat="44.21816" lon="0.75595">
        <ele>136.64465332031</ele>
        <time>2015-03-26T13:48:23Z</time>
      </trkpt>
      <trkpt lat="44.21809" lon="0.75604">
        <ele>136.64465332031</ele>
        <time>2015-03-26T13:48:34Z</time>
      </trkpt>
      <trkpt lat="44.21802" lon="0.75618">
        <ele>136.16394042969</ele>
        <time>2015-03-26T13:48:50Z</time>
      </trkpt>
      <trkpt lat="44.21793" lon="0.75628">
        <ele>133.76049804688</ele>
        <time>2015-03-26T13:49:04Z</time>
      </trkpt>
      <trkpt lat="44.21792" lon="0.7563">
        <ele>133.76049804688</ele>
        <time>2015-03-26T13:49:05Z</time>
      </trkpt>
      <trkpt lat="44.21783" lon="0.75633">
        <ele>133.27990722656</ele>
        <time>2015-03-26T13:49:17Z</time>
      </trkpt>
      <trkpt lat="44.21776" lon="0.75639">
        <ele>132.79931640625</ele>
        <time>2015-03-26T13:49:29Z</time>
      </trkpt>
      <trkpt lat="44.21771" lon="0.75642">
        <ele>131.837890625</ele>
        <time>2015-03-26T13:49:34Z</time>
      </trkpt>
      <trkpt lat="44.21767" lon="0.75642">
        <ele>131.837890625</ele>
        <time>2015-03-26T13:49:37Z</time>
      </trkpt>
      <trkpt lat="44.21755" lon="0.75637">
        <ele>134.72192382812</ele>
        <time>2015-03-26T13:49:50Z</time>
      </trkpt>
      <trkpt lat="44.21742" lon="0.75625">
        <ele>137.60583496094</ele>
        <time>2015-03-26T13:50:08Z</time>
      </trkpt>
      <trkpt lat="44.2173" lon="0.7561">
        <ele>141.93176269531</ele>
        <time>2015-03-26T13:50:27Z</time>
      </trkpt>
      <trkpt lat="44.2172" lon="0.75597">
        <ele>143.85437011719</ele>
        <time>2015-03-26T13:50:41Z</time>
      </trkpt>
      <trkpt lat="44.21701" lon="0.75583">
        <ele>144.81579589844</ele>
        <time>2015-03-26T13:51:03Z</time>
      </trkpt>
      <trkpt lat="44.21693" lon="0.75599">
        <ele>145.77709960938</ele>
        <time>2015-03-26T13:51:19Z</time>
      </trkpt>
      <trkpt lat="44.21688" lon="0.75609">
        <ele>145.29638671875</ele>
        <time>2015-03-26T13:51:29Z</time>
      </trkpt>
      <trkpt lat="44.21679" lon="0.75628">
        <ele>147.69970703125</ele>
        <time>2015-03-26T13:51:47Z</time>
      </trkpt>
      <trkpt lat="44.21676" lon="0.75639">
        <ele>147.69970703125</ele>
        <time>2015-03-26T13:52:01Z</time>
      </trkpt>
      <trkpt lat="44.21668" lon="0.75652">
        <ele>151.544921875</ele>
        <time>2015-03-26T13:52:18Z</time>
      </trkpt>
      <trkpt lat="44.21664" lon="0.75655">
        <ele>152.02575683594</ele>
        <time>2015-03-26T13:53:41Z</time>
      </trkpt>
      <trkpt lat="44.21656" lon="0.7566">
        <ele>152.50634765625</ele>
        <time>2015-03-26T13:54:09Z</time>
      </trkpt>
      <trkpt lat="44.21646" lon="0.75671">
        <ele>154.90954589844</ele>
        <time>2015-03-26T13:54:23Z</time>
      </trkpt>
      <trkpt lat="44.21644" lon="0.75673">
        <ele>155.87097167969</ele>
        <time>2015-03-26T13:54:25Z</time>
      </trkpt>
      <trkpt lat="44.21632" lon="0.75696">
        <ele>155.39025878906</ele>
        <time>2015-03-26T13:54:45Z</time>
      </trkpt>
      <trkpt lat="44.2162" lon="0.75719">
        <ele>157.79357910156</ele>
        <time>2015-03-26T13:55:04Z</time>
      </trkpt>
      <trkpt lat="44.21614" lon="0.75735">
        <ele>160.67749023438</ele>
        <time>2015-03-26T13:55:17Z</time>
      </trkpt>
      <trkpt lat="44.21601" lon="0.7576">
        <ele>161.63891601562</ele>
        <time>2015-03-26T13:55:36Z</time>
      </trkpt>
      <trkpt lat="44.21596" lon="0.75772">
        <ele>159.23547363281</ele>
        <time>2015-03-26T13:55:46Z</time>
      </trkpt>
      <trkpt lat="44.2159" lon="0.75787">
        <ele>157.79357910156</ele>
        <time>2015-03-26T13:55:56Z</time>
      </trkpt>
      <trkpt lat="44.21591" lon="0.75795">
        <ele>155.87097167969</ele>
        <time>2015-03-26T13:56:02Z</time>
      </trkpt>
      <trkpt lat="44.21618" lon="0.75802">
        <ele>154.90954589844</ele>
        <time>2015-03-26T13:56:25Z</time>
      </trkpt>
      <trkpt lat="44.21647" lon="0.75813">
        <ele>155.39025878906</ele>
        <time>2015-03-26T13:56:51Z</time>
      </trkpt>
      <trkpt lat="44.21671" lon="0.75826">
        <ele>153.94836425781</ele>
        <time>2015-03-26T13:57:14Z</time>
      </trkpt>
      <trkpt lat="44.21677" lon="0.7583">
        <ele>153.94836425781</ele>
        <time>2015-03-26T13:57:20Z</time>
      </trkpt>
      <trkpt lat="44.21706" lon="0.75845">
        <ele>154.90954589844</ele>
        <time>2015-03-26T13:57:47Z</time>
      </trkpt>
      <trkpt lat="44.21721" lon="0.75852">
        <ele>155.39025878906</ele>
        <time>2015-03-26T13:58:05Z</time>
      </trkpt>
      <trkpt lat="44.21744" lon="0.75864">
        <ele>156.83215332031</ele>
        <time>2015-03-26T13:58:27Z</time>
      </trkpt>
      <trkpt lat="44.21754" lon="0.75867">
        <ele>156.83215332031</ele>
        <time>2015-03-26T13:58:36Z</time>
      </trkpt>
      <trkpt lat="44.21762" lon="0.75871">
        <ele>157.31286621094</ele>
        <time>2015-03-26T13:58:44Z</time>
      </trkpt>
      <trkpt lat="44.21782" lon="0.75877">
        <ele>157.79357910156</ele>
        <time>2015-03-26T13:59:01Z</time>
      </trkpt>
      <trkpt lat="44.21807" lon="0.75884">
        <ele>158.75476074219</ele>
        <time>2015-03-26T13:59:25Z</time>
      </trkpt>
      <trkpt lat="44.21842" lon="0.7589">
        <ele>159.23547363281</ele>
        <time>2015-03-26T13:59:57Z</time>
      </trkpt>
      <trkpt lat="44.2187" lon="0.75893">
        <ele>160.19689941406</ele>
        <time>2015-03-26T14:00:23Z</time>
      </trkpt>
      <trkpt lat="44.21899" lon="0.75898">
        <ele>159.71618652344</ele>
        <time>2015-03-26T14:00:49Z</time>
      </trkpt>
      <trkpt lat="44.21931" lon="0.75903">
        <ele>158.27416992188</ele>
        <time>2015-03-26T14:01:15Z</time>
      </trkpt>
      <trkpt lat="44.21959" lon="0.75904">
        <ele>158.75476074219</ele>
        <time>2015-03-26T14:01:38Z</time>
      </trkpt>
      <trkpt lat="44.21967" lon="0.75906">
        <ele>158.75476074219</ele>
        <time>2015-03-26T14:01:45Z</time>
      </trkpt>
      <trkpt lat="44.21988" lon="0.7591">
        <ele>158.75476074219</ele>
        <time>2015-03-26T14:02:02Z</time>
      </trkpt>
      <trkpt lat="44.21999" lon="0.75912">
        <ele>158.27416992188</ele>
        <time>2015-03-26T14:02:12Z</time>
      </trkpt>
      <trkpt lat="44.22024" lon="0.75917">
        <ele>159.23547363281</ele>
        <time>2015-03-26T14:02:34Z</time>
      </trkpt>
      <trkpt lat="44.22047" lon="0.75921">
        <ele>156.83215332031</ele>
        <time>2015-03-26T14:02:54Z</time>
      </trkpt>
      <trkpt lat="44.22068" lon="0.75923">
        <ele>155.87097167969</ele>
        <time>2015-03-26T14:03:12Z</time>
      </trkpt>
      <trkpt lat="44.22095" lon="0.75926">
        <ele>156.83215332031</ele>
        <time>2015-03-26T14:03:36Z</time>
      </trkpt>
      <trkpt lat="44.2212" lon="0.75927">
        <ele>158.27416992188</ele>
        <time>2015-03-26T14:03:59Z</time>
      </trkpt>
      <trkpt lat="44.22146" lon="0.75929">
        <ele>158.75476074219</ele>
        <time>2015-03-26T14:04:22Z</time>
      </trkpt>
      <trkpt lat="44.2217" lon="0.75929">
        <ele>161.158203125</ele>
        <time>2015-03-26T14:04:43Z</time>
      </trkpt>
      <trkpt lat="44.22178" lon="0.75929">
        <ele>159.71618652344</ele>
        <time>2015-03-26T14:04:51Z</time>
      </trkpt>
      <trkpt lat="44.2218" lon="0.75928">
        <ele>159.71618652344</ele>
        <time>2015-03-26T14:04:53Z</time>
      </trkpt>
      <trkpt lat="44.22201" lon="0.75927">
        <ele>159.23547363281</ele>
        <time>2015-03-26T14:05:10Z</time>
      </trkpt>
      <trkpt lat="44.22225" lon="0.75925">
        <ele>159.23547363281</ele>
        <time>2015-03-26T14:05:30Z</time>
      </trkpt>
      <trkpt lat="44.22254" lon="0.75924">
        <ele>158.75476074219</ele>
        <time>2015-03-26T14:05:58Z</time>
      </trkpt>
      <trkpt lat="44.22257" lon="0.75931">
        <ele>160.19689941406</ele>
        <time>2015-03-26T14:06:04Z</time>
      </trkpt>
      <trkpt lat="44.22257" lon="0.75946">
        <ele>159.71618652344</ele>
        <time>2015-03-26T14:06:23Z</time>
      </trkpt>
      <trkpt lat="44.22256" lon="0.75968">
        <ele>160.19689941406</ele>
        <time>2015-03-26T14:06:44Z</time>
      </trkpt>
      <trkpt lat="44.22257" lon="0.76016">
        <ele>160.67749023438</ele>
        <time>2015-03-26T14:07:15Z</time>
      </trkpt>
      <trkpt lat="44.22257" lon="0.76046">
        <ele>160.67749023438</ele>
        <time>2015-03-26T14:07:34Z</time>
      </trkpt>
      <trkpt lat="44.22258" lon="0.76085">
        <ele>159.23547363281</ele>
        <time>2015-03-26T14:08:00Z</time>
      </trkpt>
      <trkpt lat="44.2226" lon="0.76091">
        <ele>158.75476074219</ele>
        <time>2015-03-26T14:08:05Z</time>
      </trkpt>
      <trkpt lat="44.22276" lon="0.76104">
        <ele>156.3515625</ele>
        <time>2015-03-26T14:08:25Z</time>
      </trkpt>
      <trkpt lat="44.22291" lon="0.76116">
        <ele>155.87097167969</ele>
        <time>2015-03-26T14:08:47Z</time>
      </trkpt>
      <trkpt lat="44.22299" lon="0.76121">
        <ele>151.06420898438</ele>
        <time>2015-03-26T14:09:08Z</time>
      </trkpt>
      <trkpt lat="44.22296" lon="0.76132">
        <ele>148.66101074219</ele>
        <time>2015-03-26T14:09:22Z</time>
      </trkpt>
      <trkpt lat="44.22294" lon="0.76141">
        <ele>146.73840332031</ele>
        <time>2015-03-26T14:09:42Z</time>
      </trkpt>
      <trkpt lat="44.22292" lon="0.76153">
        <ele>145.77709960938</ele>
        <time>2015-03-26T14:10:01Z</time>
      </trkpt>
      <trkpt lat="44.22295" lon="0.76173">
        <ele>142.41247558594</ele>
        <time>2015-03-26T14:10:20Z</time>
      </trkpt>
      <trkpt lat="44.22296" lon="0.76186">
        <ele>139.0478515625</ele>
        <time>2015-03-26T14:10:33Z</time>
      </trkpt>
      <trkpt lat="44.223" lon="0.76216">
        <ele>130.87670898438</ele>
        <time>2015-03-26T14:10:58Z</time>
      </trkpt>
      <trkpt lat="44.22305" lon="0.76244">
        <ele>126.06994628906</ele>
        <time>2015-03-26T14:11:19Z</time>
      </trkpt>
      <trkpt lat="44.22311" lon="0.76272">
        <ele>125.10876464844</ele>
        <time>2015-03-26T14:11:40Z</time>
      </trkpt>
      <trkpt lat="44.22318" lon="0.76312">
        <ele>122.22473144531</ele>
        <time>2015-03-26T14:12:07Z</time>
      </trkpt>
      <trkpt lat="44.22323" lon="0.76341">
        <ele>117.41821289062</ele>
        <time>2015-03-26T14:12:30Z</time>
      </trkpt>
      <trkpt lat="44.22327" lon="0.76374">
        <ele>111.65026855469</ele>
        <time>2015-03-26T14:12:58Z</time>
      </trkpt>
      <trkpt lat="44.22327" lon="0.76375">
        <ele>111.16955566406</ele>
        <time>2015-03-26T14:12:59Z</time>
      </trkpt>
      <trkpt lat="44.22325" lon="0.76408">
        <ele>107.80505371094</ele>
        <time>2015-03-26T14:13:23Z</time>
      </trkpt>
      <trkpt lat="44.22321" lon="0.76437">
        <ele>104.92102050781</ele>
        <time>2015-03-26T14:13:44Z</time>
      </trkpt>
      <trkpt lat="44.22316" lon="0.76474">
        <ele>100.11450195312</ele>
        <time>2015-03-26T14:14:10Z</time>
      </trkpt>
      <trkpt lat="44.22315" lon="0.76476">
        <ele>99.6337890625</ele>
        <time>2015-03-26T14:14:12Z</time>
      </trkpt>
      <trkpt lat="44.22311" lon="0.76512">
        <ele>96.269287109375</ele>
        <time>2015-03-26T14:14:38Z</time>
      </trkpt>
      <trkpt lat="44.22307" lon="0.76522">
        <ele>94.8271484375</ele>
        <time>2015-03-26T14:14:46Z</time>
      </trkpt>
      <trkpt lat="44.22289" lon="0.76517">
        <ele>93.865844726562</ele>
        <time>2015-03-26T14:15:04Z</time>
      </trkpt>
      <trkpt lat="44.22265" lon="0.76508">
        <ele>90.020629882812</ele>
        <time>2015-03-26T14:15:27Z</time>
      </trkpt>
      <trkpt lat="44.22263" lon="0.76506">
        <ele>90.020629882812</ele>
        <time>2015-03-26T14:15:29Z</time>
      </trkpt>
      <trkpt lat="44.22256" lon="0.76505">
        <ele>89.059326171875</ele>
        <time>2015-03-26T14:15:36Z</time>
      </trkpt>
      <trkpt lat="44.22249" lon="0.76504">
        <ele>89.059326171875</ele>
        <time>2015-03-26T14:15:44Z</time>
      </trkpt>
      <trkpt lat="44.22241" lon="0.76502">
        <ele>89.539916992188</ele>
        <time>2015-03-26T14:15:56Z</time>
      </trkpt>
      <trkpt lat="44.22218" lon="0.76499">
        <ele>89.059326171875</ele>
        <time>2015-03-26T14:16:19Z</time>
      </trkpt>
      <trkpt lat="44.22202" lon="0.76497">
        <ele>89.539916992188</ele>
        <time>2015-03-26T14:16:36Z</time>
      </trkpt>
      <trkpt lat="44.22181" lon="0.76494">
        <ele>89.059326171875</ele>
        <time>2015-03-26T14:16:59Z</time>
      </trkpt>
      <trkpt lat="44.22157" lon="0.7649">
        <ele>87.136596679688</ele>
        <time>2015-03-26T14:17:22Z</time>
      </trkpt>
      <trkpt lat="44.22145" lon="0.76489">
        <ele>88.098022460938</ele>
        <time>2015-03-26T14:17:35Z</time>
      </trkpt>
      <trkpt lat="44.22137" lon="0.76487">
        <ele>85.213989257812</ele>
        <time>2015-03-26T14:17:44Z</time>
      </trkpt>
      <trkpt lat="44.22123" lon="0.76479">
        <ele>85.694580078125</ele>
        <time>2015-03-26T14:17:59Z</time>
      </trkpt>
      <trkpt lat="44.22109" lon="0.76473">
        <ele>85.694580078125</ele>
        <time>2015-03-26T14:18:13Z</time>
      </trkpt>
      <trkpt lat="44.22086" lon="0.76475">
        <ele>85.694580078125</ele>
        <time>2015-03-26T14:18:37Z</time>
      </trkpt>
      <trkpt lat="44.22072" lon="0.76483">
        <ele>83.77197265625</ele>
        <time>2015-03-26T14:18:56Z</time>
      </trkpt>
      <trkpt lat="44.22051" lon="0.76495">
        <ele>81.368774414062</ele>
        <time>2015-03-26T14:19:20Z</time>
      </trkpt>
      <trkpt lat="44.22032" lon="0.76511">
        <ele>78.004028320312</ele>
        <time>2015-03-26T14:19:41Z</time>
      </trkpt>
      <trkpt lat="44.22026" lon="0.76512">
        <ele>78.965454101562</ele>
        <time>2015-03-26T14:19:47Z</time>
      </trkpt>
      <trkpt lat="44.22012" lon="0.76515">
        <ele>79.926635742188</ele>
        <time>2015-03-26T14:20:00Z</time>
      </trkpt>
      <trkpt lat="44.22007" lon="0.76515">
        <ele>80.88818359375</ele>
        <time>2015-03-26T14:20:05Z</time>
      </trkpt>
      <trkpt lat="44.22001" lon="0.76516">
        <ele>80.88818359375</ele>
        <time>2015-03-26T14:20:11Z</time>
      </trkpt>
      <trkpt lat="44.21993" lon="0.76519">
        <ele>80.407470703125</ele>
        <time>2015-03-26T14:20:18Z</time>
      </trkpt>
      <trkpt lat="44.21991" lon="0.7652">
        <ele>80.407470703125</ele>
        <time>2015-03-26T14:20:20Z</time>
      </trkpt>
      <trkpt lat="44.21972" lon="0.76518">
        <ele>80.407470703125</ele>
        <time>2015-03-26T14:20:39Z</time>
      </trkpt>
      <trkpt lat="44.21957" lon="0.76507">
        <ele>81.368774414062</ele>
        <time>2015-03-26T14:20:57Z</time>
      </trkpt>
      <trkpt lat="44.21935" lon="0.76497">
        <ele>81.368774414062</ele>
        <time>2015-03-26T14:21:19Z</time>
      </trkpt>
      <trkpt lat="44.21911" lon="0.76495">
        <ele>80.88818359375</ele>
        <time>2015-03-26T14:21:44Z</time>
      </trkpt>
      <trkpt lat="44.21888" lon="0.76494">
        <ele>82.330078125</ele>
        <time>2015-03-26T14:22:11Z</time>
      </trkpt>
      <trkpt lat="44.21869" lon="0.76497">
        <ele>85.694580078125</ele>
        <time>2015-03-26T14:22:34Z</time>
      </trkpt>
      <trkpt lat="44.21867" lon="0.76498">
        <ele>85.213989257812</ele>
        <time>2015-03-26T14:22:59Z</time>
      </trkpt>
      <trkpt lat="44.21863" lon="0.76501">
        <ele>84.7333984375</ele>
        <time>2015-03-26T14:23:22Z</time>
      </trkpt>
      <trkpt lat="44.21856" lon="0.76523">
        <ele>83.77197265625</ele>
        <time>2015-03-26T14:23:44Z</time>
      </trkpt>
      <trkpt lat="44.2185" lon="0.76543">
        <ele>81.849365234375</ele>
        <time>2015-03-26T14:24:02Z</time>
      </trkpt>
      <trkpt lat="44.21844" lon="0.76573">
        <ele>78.484741210938</ele>
        <time>2015-03-26T14:24:25Z</time>
      </trkpt>
      <trkpt lat="44.21841" lon="0.76591">
        <ele>76.562133789062</ele>
        <time>2015-03-26T14:24:40Z</time>
      </trkpt>
      <trkpt lat="44.21841" lon="0.76596">
        <ele>76.562133789062</ele>
        <time>2015-03-26T14:24:43Z</time>
      </trkpt>
      <trkpt lat="44.21835" lon="0.76619">
        <ele>75.120239257812</ele>
        <time>2015-03-26T14:25:00Z</time>
      </trkpt>
      <trkpt lat="44.21827" lon="0.76653">
        <ele>75.600830078125</ele>
        <time>2015-03-26T14:25:23Z</time>
      </trkpt>
      <trkpt lat="44.2182" lon="0.76682">
        <ele>75.600830078125</ele>
        <time>2015-03-26T14:25:45Z</time>
      </trkpt>
      <trkpt lat="44.2182" lon="0.76684">
        <ele>75.600830078125</ele>
        <time>2015-03-26T14:25:46Z</time>
      </trkpt>
      <trkpt lat="44.21813" lon="0.7671">
        <ele>77.5234375</ele>
        <time>2015-03-26T14:26:04Z</time>
      </trkpt>
      <trkpt lat="44.21812" lon="0.76714">
        <ele>77.5234375</ele>
        <time>2015-03-26T14:26:07Z</time>
      </trkpt>
      <trkpt lat="44.21807" lon="0.76737">
        <ele>78.004028320312</ele>
        <time>2015-03-26T14:26:26Z</time>
      </trkpt>
      <trkpt lat="44.21807" lon="0.76737">
        <ele>77.042846679688</ele>
        <time>2015-03-26T14:27:07Z</time>
      </trkpt>
      <trkpt lat="44.21806" lon="0.76738">
        <ele>77.042846679688</ele>
        <time>2015-03-26T14:27:34Z</time>
      </trkpt>
      <trkpt lat="44.21803" lon="0.76742">
        <ele>76.562133789062</ele>
        <time>2015-03-26T14:27:59Z</time>
      </trkpt>
      <trkpt lat="44.21796" lon="0.76745">
        <ele>77.042846679688</ele>
        <time>2015-03-26T14:28:09Z</time>
      </trkpt>
      <trkpt lat="44.21778" lon="0.76744">
        <ele>76.081420898438</ele>
        <time>2015-03-26T14:28:26Z</time>
      </trkpt>
      <trkpt lat="44.21775" lon="0.76744">
        <ele>76.081420898438</ele>
        <time>2015-03-26T14:28:30Z</time>
      </trkpt>
      <trkpt lat="44.21754" lon="0.76739">
        <ele>75.600830078125</ele>
        <time>2015-03-26T14:28:50Z</time>
      </trkpt>
      <trkpt lat="44.2174" lon="0.76737">
        <ele>75.120239257812</ele>
        <time>2015-03-26T14:29:05Z</time>
      </trkpt>
      <trkpt lat="44.21723" lon="0.76732">
        <ele>74.639526367188</ele>
        <time>2015-03-26T14:29:22Z</time>
      </trkpt>
      <trkpt lat="44.21711" lon="0.76729">
        <ele>72.716918945312</ele>
        <time>2015-03-26T14:29:33Z</time>
      </trkpt>
      <trkpt lat="44.21689" lon="0.76722">
        <ele>70.3134765625</ele>
        <time>2015-03-26T14:29:53Z</time>
      </trkpt>
      <trkpt lat="44.2167" lon="0.76715">
        <ele>68.87158203125</ele>
        <time>2015-03-26T14:30:12Z</time>
      </trkpt>
      <trkpt lat="44.21649" lon="0.76701">
        <ele>68.390869140625</ele>
        <time>2015-03-26T14:30:33Z</time>
      </trkpt>
      <trkpt lat="44.21645" lon="0.76698">
        <ele>68.390869140625</ele>
        <time>2015-03-26T14:30:37Z</time>
      </trkpt>
      <trkpt lat="44.21617" lon="0.76686">
        <ele>70.3134765625</ele>
        <time>2015-03-26T14:31:03Z</time>
      </trkpt>
      <trkpt lat="44.21587" lon="0.76692">
        <ele>72.236206054688</ele>
        <time>2015-03-26T14:31:30Z</time>
      </trkpt>
      <trkpt lat="44.21556" lon="0.76709">
        <ele>71.27490234375</ele>
        <time>2015-03-26T14:31:59Z</time>
      </trkpt>
      <trkpt lat="44.21546" lon="0.76715">
        <ele>69.832885742188</ele>
        <time>2015-03-26T14:32:08Z</time>
      </trkpt>
      <trkpt lat="44.21542" lon="0.76719">
        <ele>69.352294921875</ele>
        <time>2015-03-26T14:32:12Z</time>
      </trkpt>
      <trkpt lat="44.21539" lon="0.76723">
        <ele>69.832885742188</ele>
        <time>2015-03-26T14:32:16Z</time>
      </trkpt>
      <trkpt lat="44.21535" lon="0.76726">
        <ele>70.794189453125</ele>
        <time>2015-03-26T14:32:20Z</time>
      </trkpt>
      <trkpt lat="44.21532" lon="0.76729">
        <ele>71.755493164062</ele>
        <time>2015-03-26T14:32:24Z</time>
      </trkpt>
      <trkpt lat="44.21526" lon="0.76734">
        <ele>71.27490234375</ele>
        <time>2015-03-26T14:32:30Z</time>
      </trkpt>
      <trkpt lat="44.21521" lon="0.76739">
        <ele>71.755493164062</ele>
        <time>2015-03-26T14:32:35Z</time>
      </trkpt>
      <trkpt lat="44.21503" lon="0.76762">
        <ele>72.236206054688</ele>
        <time>2015-03-26T14:32:57Z</time>
      </trkpt>
      <trkpt lat="44.21498" lon="0.76766">
        <ele>71.755493164062</ele>
        <time>2015-03-26T14:33:02Z</time>
      </trkpt>
      <trkpt lat="44.21486" lon="0.76781">
        <ele>71.27490234375</ele>
        <time>2015-03-26T14:33:16Z</time>
      </trkpt>
      <trkpt lat="44.21461" lon="0.76806">
        <ele>69.832885742188</ele>
        <time>2015-03-26T14:33:42Z</time>
      </trkpt>
      <trkpt lat="44.2144" lon="0.76823">
        <ele>69.832885742188</ele>
        <time>2015-03-26T14:34:06Z</time>
      </trkpt>
      <trkpt lat="44.21432" lon="0.76829">
        <ele>71.755493164062</ele>
        <time>2015-03-26T14:34:14Z</time>
      </trkpt>
      <trkpt lat="44.21429" lon="0.76834">
        <ele>71.27490234375</ele>
        <time>2015-03-26T14:34:18Z</time>
      </trkpt>
      <trkpt lat="44.21424" lon="0.76838">
        <ele>71.755493164062</ele>
        <time>2015-03-26T14:34:23Z</time>
      </trkpt>
      <trkpt lat="44.21407" lon="0.76852">
        <ele>69.832885742188</ele>
        <time>2015-03-26T14:34:40Z</time>
      </trkpt>
      <trkpt lat="44.21401" lon="0.76854">
        <ele>70.3134765625</ele>
        <time>2015-03-26T14:34:45Z</time>
      </trkpt>
      <trkpt lat="44.21382" lon="0.76868">
        <ele>71.27490234375</ele>
        <time>2015-03-26T14:35:02Z</time>
      </trkpt>
      <trkpt lat="44.2136" lon="0.76886">
        <ele>71.755493164062</ele>
        <time>2015-03-26T14:35:25Z</time>
      </trkpt>
      <trkpt lat="44.21345" lon="0.76899">
        <ele>71.755493164062</ele>
        <time>2015-03-26T14:35:41Z</time>
      </trkpt>
      <trkpt lat="44.21333" lon="0.76913">
        <ele>72.716918945312</ele>
        <time>2015-03-26T14:35:55Z</time>
      </trkpt>
      <trkpt lat="44.21328" lon="0.76922">
        <ele>72.236206054688</ele>
        <time>2015-03-26T14:36:03Z</time>
      </trkpt>
      <trkpt lat="44.21327" lon="0.76928">
        <ele>71.755493164062</ele>
        <time>2015-03-26T14:36:06Z</time>
      </trkpt>
      <trkpt lat="44.21325" lon="0.76931">
        <ele>71.755493164062</ele>
        <time>2015-03-26T14:36:09Z</time>
      </trkpt>
      <trkpt lat="44.21323" lon="0.76936">
        <ele>72.236206054688</ele>
        <time>2015-03-26T14:36:12Z</time>
      </trkpt>
      <trkpt lat="44.2132" lon="0.76941">
        <ele>72.716918945312</ele>
        <time>2015-03-26T14:36:16Z</time>
      </trkpt>
      <trkpt lat="44.21313" lon="0.76955">
        <ele>75.600830078125</ele>
        <time>2015-03-26T14:36:29Z</time>
      </trkpt>
      <trkpt lat="44.21308" lon="0.76963">
        <ele>75.600830078125</ele>
        <time>2015-03-26T14:36:35Z</time>
      </trkpt>
      <trkpt lat="44.21296" lon="0.76989">
        <ele>75.600830078125</ele>
        <time>2015-03-26T14:36:55Z</time>
      </trkpt>
      <trkpt lat="44.21282" lon="0.77011">
        <ele>77.042846679688</ele>
        <time>2015-03-26T14:37:14Z</time>
      </trkpt>
      <trkpt lat="44.21278" lon="0.77015">
        <ele>78.004028320312</ele>
        <time>2015-03-26T14:37:19Z</time>
      </trkpt>
      <trkpt lat="44.21261" lon="0.77023">
        <ele>79.446044921875</ele>
        <time>2015-03-26T14:37:36Z</time>
      </trkpt>
      <trkpt lat="44.21238" lon="0.77021">
        <ele>79.926635742188</ele>
        <time>2015-03-26T14:38:02Z</time>
      </trkpt>
      <trkpt lat="44.21219" lon="0.77023">
        <ele>82.330078125</ele>
        <time>2015-03-26T14:38:21Z</time>
      </trkpt>
      <trkpt lat="44.21201" lon="0.77042">
        <ele>82.810791015625</ele>
        <time>2015-03-26T14:38:43Z</time>
      </trkpt>
      <trkpt lat="44.212" lon="0.77044">
        <ele>82.330078125</ele>
        <time>2015-03-26T14:38:45Z</time>
      </trkpt>
      <trkpt lat="44.21193" lon="0.77058">
        <ele>82.330078125</ele>
        <time>2015-03-26T14:38:59Z</time>
      </trkpt>
      <trkpt lat="44.21185" lon="0.77072">
        <ele>81.849365234375</ele>
        <time>2015-03-26T14:39:14Z</time>
      </trkpt>
      <trkpt lat="44.2118" lon="0.77082">
        <ele>82.810791015625</ele>
        <time>2015-03-26T14:39:27Z</time>
      </trkpt>
      <trkpt lat="44.21178" lon="0.77086">
        <ele>83.291381835938</ele>
        <time>2015-03-26T14:39:31Z</time>
      </trkpt>
      <trkpt lat="44.21159" lon="0.77112">
        <ele>84.252685546875</ele>
        <time>2015-03-26T14:39:55Z</time>
      </trkpt>
      <trkpt lat="44.21146" lon="0.77132">
        <ele>84.7333984375</ele>
        <time>2015-03-26T14:40:12Z</time>
      </trkpt>
      <trkpt lat="44.21129" lon="0.77157">
        <ele>88.098022460938</ele>
        <time>2015-03-26T14:40:34Z</time>
      </trkpt>
      <trkpt lat="44.21109" lon="0.77184">
        <ele>86.656005859375</ele>
        <time>2015-03-26T14:40:59Z</time>
      </trkpt>
      <trkpt lat="44.21089" lon="0.77202">
        <ele>83.291381835938</ele>
        <time>2015-03-26T14:41:19Z</time>
      </trkpt>
      <trkpt lat="44.21071" lon="0.77227">
        <ele>80.88818359375</ele>
        <time>2015-03-26T14:41:40Z</time>
      </trkpt>
      <trkpt lat="44.21049" lon="0.77249">
        <ele>79.926635742188</ele>
        <time>2015-03-26T14:42:02Z</time>
      </trkpt>
      <trkpt lat="44.21048" lon="0.77251">
        <ele>79.926635742188</ele>
        <time>2015-03-26T14:42:03Z</time>
      </trkpt>
      <trkpt lat="44.21045" lon="0.77255">
        <ele>79.926635742188</ele>
        <time>2015-03-26T14:42:06Z</time>
      </trkpt>
      <trkpt lat="44.21033" lon="0.77268">
        <ele>78.484741210938</ele>
        <time>2015-03-26T14:42:20Z</time>
      </trkpt>
      <trkpt lat="44.21031" lon="0.77268">
        <ele>78.484741210938</ele>
        <time>2015-03-26T14:42:22Z</time>
      </trkpt>
      <trkpt lat="44.21007" lon="0.77295">
        <ele>76.081420898438</ele>
        <time>2015-03-26T14:42:48Z</time>
      </trkpt>
      <trkpt lat="44.20986" lon="0.77318">
        <ele>75.120239257812</ele>
        <time>2015-03-26T14:43:10Z</time>
      </trkpt>
      <trkpt lat="44.20962" lon="0.77356">
        <ele>73.67822265625</ele>
        <time>2015-03-26T14:43:41Z</time>
      </trkpt>
      <trkpt lat="44.20939" lon="0.77396">
        <ele>73.197631835938</ele>
        <time>2015-03-26T14:44:13Z</time>
      </trkpt>
      <trkpt lat="44.20931" lon="0.77427">
        <ele>71.755493164062</ele>
        <time>2015-03-26T14:44:33Z</time>
      </trkpt>
      <trkpt lat="44.20927" lon="0.77454">
        <ele>69.352294921875</ele>
        <time>2015-03-26T14:44:49Z</time>
      </trkpt>
      <trkpt lat="44.20921" lon="0.77489">
        <ele>67.4296875</ele>
        <time>2015-03-26T14:45:13Z</time>
      </trkpt>
      <trkpt lat="44.20907" lon="0.77517">
        <ele>61.181030273438</ele>
        <time>2015-03-26T14:45:36Z</time>
      </trkpt>
      <trkpt lat="44.20886" lon="0.77529">
        <ele>60.2197265625</ele>
        <time>2015-03-26T14:45:56Z</time>
      </trkpt>
      <trkpt lat="44.20875" lon="0.77533">
        <ele>60.700317382812</ele>
        <time>2015-03-26T14:46:05Z</time>
      </trkpt>
      <trkpt lat="44.20855" lon="0.77538">
        <ele>59.739135742188</ele>
        <time>2015-03-26T14:46:24Z</time>
      </trkpt>
      <trkpt lat="44.20841" lon="0.77541">
        <ele>58.297119140625</ele>
        <time>2015-03-26T14:46:36Z</time>
      </trkpt>
      <trkpt lat="44.20811" lon="0.77551">
        <ele>57.816528320312</ele>
        <time>2015-03-26T14:47:01Z</time>
      </trkpt>
      <trkpt lat="44.20783" lon="0.77564">
        <ele>56.37451171875</ele>
        <time>2015-03-26T14:47:26Z</time>
      </trkpt>
      <trkpt lat="44.20764" lon="0.77574">
        <ele>56.855102539062</ele>
        <time>2015-03-26T14:47:43Z</time>
      </trkpt>
      <trkpt lat="44.2076" lon="0.77578">
        <ele>56.37451171875</ele>
        <time>2015-03-26T14:47:47Z</time>
      </trkpt>
      <trkpt lat="44.20743" lon="0.77586">
        <ele>54.932373046875</ele>
        <time>2015-03-26T14:48:02Z</time>
      </trkpt>
      <trkpt lat="44.20734" lon="0.77591">
        <ele>53.97119140625</ele>
        <time>2015-03-26T14:48:09Z</time>
      </trkpt>
      <trkpt lat="44.20715" lon="0.77599">
        <ele>53.97119140625</ele>
        <time>2015-03-26T14:48:26Z</time>
      </trkpt>
      <trkpt lat="44.2069" lon="0.77612">
        <ele>53.97119140625</ele>
        <time>2015-03-26T14:48:48Z</time>
      </trkpt>
      <trkpt lat="44.2067" lon="0.77619">
        <ele>53.97119140625</ele>
        <time>2015-03-26T14:49:07Z</time>
      </trkpt>
      <trkpt lat="44.20653" lon="0.77621">
        <ele>51.56787109375</ele>
        <time>2015-03-26T14:49:23Z</time>
      </trkpt>
      <trkpt lat="44.20628" lon="0.77623">
        <ele>50.606567382812</ele>
        <time>2015-03-26T14:49:44Z</time>
      </trkpt>
      <trkpt lat="44.20606" lon="0.77629">
        <ele>50.606567382812</ele>
        <time>2015-03-26T14:50:05Z</time>
      </trkpt>
      <trkpt lat="44.20598" lon="0.77634">
        <ele>50.606567382812</ele>
        <time>2015-03-26T14:50:23Z</time>
      </trkpt>
      <trkpt lat="44.20591" lon="0.77637">
        <ele>50.606567382812</ele>
        <time>2015-03-26T14:50:36Z</time>
      </trkpt>
      <trkpt lat="44.20582" lon="0.77638">
        <ele>48.683959960938</ele>
        <time>2015-03-26T14:50:47Z</time>
      </trkpt>
      <trkpt lat="44.20574" lon="0.77638">
        <ele>48.203369140625</ele>
        <time>2015-03-26T14:50:54Z</time>
      </trkpt>
      <trkpt lat="44.20571" lon="0.77637">
        <ele>48.683959960938</ele>
        <time>2015-03-26T14:50:57Z</time>
      </trkpt>
      <trkpt lat="44.20555" lon="0.77642">
        <ele>47.722534179688</ele>
        <time>2015-03-26T14:51:14Z</time>
      </trkpt>
      <trkpt lat="44.20536" lon="0.77649">
        <ele>47.722534179688</ele>
        <time>2015-03-26T14:51:32Z</time>
      </trkpt>
      <trkpt lat="44.20524" lon="0.77651">
        <ele>47.241821289062</ele>
        <time>2015-03-26T14:51:42Z</time>
      </trkpt>
      <trkpt lat="44.20505" lon="0.77657">
        <ele>48.683959960938</ele>
        <time>2015-03-26T14:52:02Z</time>
      </trkpt>
      <trkpt lat="44.2048" lon="0.77666">
        <ele>49.16455078125</ele>
        <time>2015-03-26T14:52:25Z</time>
      </trkpt>
      <trkpt lat="44.20464" lon="0.77673">
        <ele>50.606567382812</ele>
        <time>2015-03-26T14:52:42Z</time>
      </trkpt>
      <trkpt lat="44.20453" lon="0.77669">
        <ele>53.009765625</ele>
        <time>2015-03-26T14:53:00Z</time>
      </trkpt>
      <trkpt lat="44.20454" lon="0.77663">
        <ele>53.009765625</ele>
        <time>2015-03-26T14:53:05Z</time>
      </trkpt>
      <trkpt lat="44.20457" lon="0.77633">
        <ele>52.529174804688</ele>
        <time>2015-03-26T14:53:27Z</time>
      </trkpt>
      <trkpt lat="44.20459" lon="0.77613">
        <ele>51.087158203125</ele>
        <time>2015-03-26T14:53:40Z</time>
      </trkpt>
      <trkpt lat="44.20466" lon="0.77584">
        <ele>51.087158203125</ele>
        <time>2015-03-26T14:54:00Z</time>
      </trkpt>
      <trkpt lat="44.20475" lon="0.77562">
        <ele>50.606567382812</ele>
        <time>2015-03-26T14:54:17Z</time>
      </trkpt>
      <trkpt lat="44.20483" lon="0.77549">
        <ele>50.1259765625</ele>
        <time>2015-03-26T14:54:29Z</time>
      </trkpt>
      <trkpt lat="44.20506" lon="0.77519">
        <ele>49.645263671875</ele>
        <time>2015-03-26T14:54:58Z</time>
      </trkpt>
      <trkpt lat="44.20524" lon="0.77493">
        <ele>50.606567382812</ele>
        <time>2015-03-26T14:55:22Z</time>
      </trkpt>
      <trkpt lat="44.20541" lon="0.77465">
        <ele>50.606567382812</ele>
        <time>2015-03-26T14:55:48Z</time>
      </trkpt>
      <trkpt lat="44.20554" lon="0.77449">
        <ele>50.606567382812</ele>
        <time>2015-03-26T14:56:05Z</time>
      </trkpt>
      <trkpt lat="44.20568" lon="0.77431">
        <ele>52.048583984375</ele>
        <time>2015-03-26T14:56:26Z</time>
      </trkpt>
      <trkpt lat="44.20584" lon="0.77411">
        <ele>53.009765625</ele>
        <time>2015-03-26T14:56:46Z</time>
      </trkpt>
      <trkpt lat="44.20589" lon="0.774">
        <ele>53.009765625</ele>
        <time>2015-03-26T14:56:56Z</time>
      </trkpt>
      <trkpt lat="44.20586" lon="0.77387">
        <ele>54.451782226562</ele>
        <time>2015-03-26T14:57:08Z</time>
      </trkpt>
      <trkpt lat="44.20566" lon="0.77377">
        <ele>56.855102539062</ele>
        <time>2015-03-26T14:57:28Z</time>
      </trkpt>
      <trkpt lat="44.20554" lon="0.77358">
        <ele>60.700317382812</ele>
        <time>2015-03-26T14:57:50Z</time>
      </trkpt>
      <trkpt lat="44.20552" lon="0.77339">
        <ele>59.258422851562</ele>
        <time>2015-03-26T14:58:19Z</time>
      </trkpt>
      <trkpt lat="44.20558" lon="0.77317">
        <ele>57.335815429688</ele>
        <time>2015-03-26T14:58:34Z</time>
      </trkpt>
      <trkpt lat="44.20559" lon="0.77311">
        <ele>57.335815429688</ele>
        <time>2015-03-26T14:58:39Z</time>
      </trkpt>
      <trkpt lat="44.20563" lon="0.77297">
        <ele>56.855102539062</ele>
        <time>2015-03-26T14:58:50Z</time>
      </trkpt>
      <trkpt lat="44.20569" lon="0.77281">
        <ele>60.700317382812</ele>
        <time>2015-03-26T14:59:03Z</time>
      </trkpt>
      <trkpt lat="44.20573" lon="0.77265">
        <ele>68.87158203125</ele>
        <time>2015-03-26T14:59:16Z</time>
      </trkpt>
      <trkpt lat="44.20577" lon="0.77246">
        <ele>72.236206054688</ele>
        <time>2015-03-26T14:59:31Z</time>
      </trkpt>
      <trkpt lat="44.20577" lon="0.77227">
        <ele>73.197631835938</ele>
        <time>2015-03-26T14:59:45Z</time>
      </trkpt>
      <trkpt lat="44.20577" lon="0.77205">
        <ele>74.639526367188</ele>
        <time>2015-03-26T15:00:02Z</time>
      </trkpt>
      <trkpt lat="44.20578" lon="0.77187">
        <ele>75.600830078125</ele>
        <time>2015-03-26T15:00:16Z</time>
      </trkpt>
      <trkpt lat="44.20578" lon="0.77174">
        <ele>76.562133789062</ele>
        <time>2015-03-26T15:00:26Z</time>
      </trkpt>
      <trkpt lat="44.20579" lon="0.77164">
        <ele>78.484741210938</ele>
        <time>2015-03-26T15:00:34Z</time>
      </trkpt>
      <trkpt lat="44.2058" lon="0.77139">
        <ele>78.004028320312</ele>
        <time>2015-03-26T15:00:51Z</time>
      </trkpt>
      <trkpt lat="44.20581" lon="0.77129">
        <ele>78.965454101562</ele>
        <time>2015-03-26T15:01:02Z</time>
      </trkpt>
      <trkpt lat="44.20582" lon="0.77111">
        <ele>78.484741210938</ele>
        <time>2015-03-26T15:01:16Z</time>
      </trkpt>
      <trkpt lat="44.20582" lon="0.7709">
        <ele>78.004028320312</ele>
        <time>2015-03-26T15:01:33Z</time>
      </trkpt>
      <trkpt lat="44.20583" lon="0.77083">
        <ele>78.484741210938</ele>
        <time>2015-03-26T15:01:39Z</time>
      </trkpt>
      <trkpt lat="44.20584" lon="0.7706">
        <ele>78.484741210938</ele>
        <time>2015-03-26T15:01:55Z</time>
      </trkpt>
      <trkpt lat="44.20582" lon="0.77044">
        <ele>78.484741210938</ele>
        <time>2015-03-26T15:02:08Z</time>
      </trkpt>
      <trkpt lat="44.20578" lon="0.77022">
        <ele>78.004028320312</ele>
        <time>2015-03-26T15:02:23Z</time>
      </trkpt>
      <trkpt lat="44.20571" lon="0.77002">
        <ele>78.965454101562</ele>
        <time>2015-03-26T15:02:40Z</time>
      </trkpt>
      <trkpt lat="44.20562" lon="0.76987">
        <ele>78.965454101562</ele>
        <time>2015-03-26T15:02:55Z</time>
      </trkpt>
      <trkpt lat="44.20559" lon="0.76985">
        <ele>79.446044921875</ele>
        <time>2015-03-26T15:02:58Z</time>
      </trkpt>
      <trkpt lat="44.20548" lon="0.76964">
        <ele>82.330078125</ele>
        <time>2015-03-26T15:03:19Z</time>
      </trkpt>
      <trkpt lat="44.20542" lon="0.76949">
        <ele>84.252685546875</ele>
        <time>2015-03-26T15:03:34Z</time>
      </trkpt>
      <trkpt lat="44.20536" lon="0.76935">
        <ele>84.7333984375</ele>
        <time>2015-03-26T15:03:47Z</time>
      </trkpt>
      <trkpt lat="44.20527" lon="0.76917">
        <ele>86.17529296875</ele>
        <time>2015-03-26T15:04:04Z</time>
      </trkpt>
      <trkpt lat="44.20514" lon="0.76891">
        <ele>86.17529296875</ele>
        <time>2015-03-26T15:04:26Z</time>
      </trkpt>
      <trkpt lat="44.20498" lon="0.76861">
        <ele>87.6171875</ele>
        <time>2015-03-26T15:04:52Z</time>
      </trkpt>
      <trkpt lat="44.20483" lon="0.76838">
        <ele>87.6171875</ele>
        <time>2015-03-26T15:05:14Z</time>
      </trkpt>
      <trkpt lat="44.20467" lon="0.76821">
        <ele>88.578735351562</ele>
        <time>2015-03-26T15:05:35Z</time>
      </trkpt>
      <trkpt lat="44.20452" lon="0.76807">
        <ele>89.059326171875</ele>
        <time>2015-03-26T15:05:57Z</time>
      </trkpt>
      <trkpt lat="44.20434" lon="0.76783">
        <ele>90.501342773438</ele>
        <time>2015-03-26T15:06:25Z</time>
      </trkpt>
      <trkpt lat="44.2043" lon="0.76777">
        <ele>90.501342773438</ele>
        <time>2015-03-26T15:06:32Z</time>
      </trkpt>
      <trkpt lat="44.20424" lon="0.76767">
        <ele>90.98193359375</ele>
        <time>2015-03-26T15:06:42Z</time>
      </trkpt>
      <trkpt lat="44.20404" lon="0.76743">
        <ele>92.904541015625</ele>
        <time>2015-03-26T15:07:08Z</time>
      </trkpt>
      <trkpt lat="44.20381" lon="0.76718">
        <ele>93.865844726562</ele>
        <time>2015-03-26T15:07:37Z</time>
      </trkpt>
      <trkpt lat="44.2036" lon="0.76691">
        <ele>92.904541015625</ele>
        <time>2015-03-26T15:08:06Z</time>
      </trkpt>
      <trkpt lat="44.20342" lon="0.76671">
        <ele>91.462524414062</ele>
        <time>2015-03-26T15:08:29Z</time>
      </trkpt>
      <trkpt lat="44.20342" lon="0.7667">
        <ele>91.943237304688</ele>
        <time>2015-03-26T15:08:30Z</time>
      </trkpt>
      <trkpt lat="44.20344" lon="0.76654">
        <ele>90.020629882812</ele>
        <time>2015-03-26T15:08:47Z</time>
      </trkpt>
      <trkpt lat="44.20348" lon="0.76648">
        <ele>89.059326171875</ele>
        <time>2015-03-26T15:09:05Z</time>
      </trkpt>
      <trkpt lat="44.20354" lon="0.76634">
        <ele>88.098022460938</ele>
        <time>2015-03-26T15:09:22Z</time>
      </trkpt>
      <trkpt lat="44.20364" lon="0.76614">
        <ele>93.385131835938</ele>
        <time>2015-03-26T15:09:43Z</time>
      </trkpt>
      <trkpt lat="44.20373" lon="0.76597">
        <ele>96.269287109375</ele>
        <time>2015-03-26T15:10:02Z</time>
      </trkpt>
      <trkpt lat="44.20383" lon="0.76582">
        <ele>97.711181640625</ele>
        <time>2015-03-26T15:10:20Z</time>
      </trkpt>
      <trkpt lat="44.20394" lon="0.76566">
        <ele>97.711181640625</ele>
        <time>2015-03-26T15:10:43Z</time>
      </trkpt>
      <trkpt lat="44.20398" lon="0.7656">
        <ele>93.865844726562</ele>
        <time>2015-03-26T15:10:59Z</time>
      </trkpt>
      <trkpt lat="44.20408" lon="0.76546">
        <ele>95.788452148438</ele>
        <time>2015-03-26T15:11:18Z</time>
      </trkpt>
      <trkpt lat="44.20418" lon="0.76525">
        <ele>97.711181640625</ele>
        <time>2015-03-26T15:11:40Z</time>
      </trkpt>
      <trkpt lat="44.20422" lon="0.76502">
        <ele>99.6337890625</ele>
        <time>2015-03-26T15:11:59Z</time>
      </trkpt>
      <trkpt lat="44.20424" lon="0.7648">
        <ele>102.037109375</ele>
        <time>2015-03-26T15:12:19Z</time>
      </trkpt>
      <trkpt lat="44.20426" lon="0.76472">
        <ele>102.99829101562</ele>
        <time>2015-03-26T15:12:26Z</time>
      </trkpt>
      <trkpt lat="44.20431" lon="0.76456">
        <ele>104.4404296875</ele>
        <time>2015-03-26T15:12:43Z</time>
      </trkpt>
      <trkpt lat="44.20431" lon="0.7645">
        <ele>104.92102050781</ele>
        <time>2015-03-26T15:12:48Z</time>
      </trkpt>
      <trkpt lat="44.20432" lon="0.76447">
        <ele>105.40173339844</ele>
        <time>2015-03-26T15:12:50Z</time>
      </trkpt>
      <trkpt lat="44.20434" lon="0.76434">
        <ele>108.76623535156</ele>
        <time>2015-03-26T15:13:06Z</time>
      </trkpt>
      <trkpt lat="44.2044" lon="0.7641">
        <ele>110.68884277344</ele>
        <time>2015-03-26T15:13:26Z</time>
      </trkpt>
      <trkpt lat="44.20435" lon="0.76371">
        <ele>113.09228515625</ele>
        <time>2015-03-26T15:13:52Z</time>
      </trkpt>
      <trkpt lat="44.20429" lon="0.76333">
        <ele>113.09228515625</ele>
        <time>2015-03-26T15:14:17Z</time>
      </trkpt>
      <trkpt lat="44.20427" lon="0.76324">
        <ele>113.57299804688</ele>
        <time>2015-03-26T15:14:23Z</time>
      </trkpt>
      <trkpt lat="44.20423" lon="0.7631">
        <ele>113.57299804688</ele>
        <time>2015-03-26T15:14:33Z</time>
      </trkpt>
      <trkpt lat="44.20419" lon="0.76286">
        <ele>113.57299804688</ele>
        <time>2015-03-26T15:14:51Z</time>
      </trkpt>
      <trkpt lat="44.20419" lon="0.76251">
        <ele>113.57299804688</ele>
        <time>2015-03-26T15:15:16Z</time>
      </trkpt>
      <trkpt lat="44.2042" lon="0.76234">
        <ele>112.13098144531</ele>
        <time>2015-03-26T15:15:32Z</time>
      </trkpt>
      <trkpt lat="44.20418" lon="0.76211">
        <ele>113.57299804688</ele>
        <time>2015-03-26T15:15:51Z</time>
      </trkpt>
      <trkpt lat="44.20416" lon="0.76192">
        <ele>113.57299804688</ele>
        <time>2015-03-26T15:16:07Z</time>
      </trkpt>
      <trkpt lat="44.20415" lon="0.76171">
        <ele>117.89880371094</ele>
        <time>2015-03-26T15:16:26Z</time>
      </trkpt>
      <trkpt lat="44.20416" lon="0.76159">
        <ele>118.86010742188</ele>
        <time>2015-03-26T15:16:42Z</time>
      </trkpt>
      <trkpt lat="44.20416" lon="0.76124">
        <ele>119.82141113281</ele>
        <time>2015-03-26T15:17:08Z</time>
      </trkpt>
      <trkpt lat="44.20416" lon="0.76096">
        <ele>122.70544433594</ele>
        <time>2015-03-26T15:17:33Z</time>
      </trkpt>
      <trkpt lat="44.20416" lon="0.7606">
        <ele>125.10876464844</ele>
        <time>2015-03-26T15:18:01Z</time>
      </trkpt>
      <trkpt lat="44.20415" lon="0.76029">
        <ele>123.18615722656</ele>
        <time>2015-03-26T15:18:27Z</time>
      </trkpt>
      <trkpt lat="44.20413" lon="0.75985">
        <ele>124.62805175781</ele>
        <time>2015-03-26T15:18:59Z</time>
      </trkpt>
      <trkpt lat="44.20411" lon="0.75945">
        <ele>127.99255371094</ele>
        <time>2015-03-26T15:19:30Z</time>
      </trkpt>
      <trkpt lat="44.20411" lon="0.75942">
        <ele>127.99255371094</ele>
        <time>2015-03-26T15:19:32Z</time>
      </trkpt>
      <trkpt lat="44.20409" lon="0.75902">
        <ele>129.43469238281</ele>
        <time>2015-03-26T15:20:01Z</time>
      </trkpt>
      <trkpt lat="44.20406" lon="0.75878">
        <ele>130.87670898438</ele>
        <time>2015-03-26T15:20:19Z</time>
      </trkpt>
      <trkpt lat="44.20401" lon="0.75859">
        <ele>132.31860351562</ele>
        <time>2015-03-26T15:20:35Z</time>
      </trkpt>
      <trkpt lat="44.20397" lon="0.75838">
        <ele>131.35729980469</ele>
        <time>2015-03-26T15:20:54Z</time>
      </trkpt>
      <trkpt lat="44.20395" lon="0.75823">
        <ele>132.79931640625</ele>
        <time>2015-03-26T15:21:10Z</time>
      </trkpt>
      <trkpt lat="44.20395" lon="0.75806">
        <ele>137.12524414062</ele>
        <time>2015-03-26T15:21:28Z</time>
      </trkpt>
      <trkpt lat="44.20398" lon="0.75794">
        <ele>139.52844238281</ele>
        <time>2015-03-26T15:21:43Z</time>
      </trkpt>
      <trkpt lat="44.20396" lon="0.75784">
        <ele>140.97045898438</ele>
        <time>2015-03-26T15:22:12Z</time>
      </trkpt>
      <trkpt lat="44.20392" lon="0.75759">
        <ele>141.45104980469</ele>
        <time>2015-03-26T15:22:37Z</time>
      </trkpt>
      <trkpt lat="44.2039" lon="0.75739">
        <ele>143.85437011719</ele>
        <time>2015-03-26T15:22:50Z</time>
      </trkpt>
      <trkpt lat="44.20389" lon="0.75727">
        <ele>144.81579589844</ele>
        <time>2015-03-26T15:22:58Z</time>
      </trkpt>
      <trkpt lat="44.20386" lon="0.75709">
        <ele>144.33520507812</ele>
        <time>2015-03-26T15:23:11Z</time>
      </trkpt>
      <trkpt lat="44.20384" lon="0.75694">
        <ele>145.29638671875</ele>
        <time>2015-03-26T15:23:22Z</time>
      </trkpt>
      <trkpt lat="44.20382" lon="0.75687">
        <ele>145.77709960938</ele>
        <time>2015-03-26T15:23:26Z</time>
      </trkpt>
      <trkpt lat="44.20382" lon="0.75681">
        <ele>145.77709960938</ele>
        <time>2015-03-26T15:23:30Z</time>
      </trkpt>
      <trkpt lat="44.2038" lon="0.75674">
        <ele>146.2578125</ele>
        <time>2015-03-26T15:23:35Z</time>
      </trkpt>
      <trkpt lat="44.20379" lon="0.75666">
        <ele>146.2578125</ele>
        <time>2015-03-26T15:23:40Z</time>
      </trkpt>
      <trkpt lat="44.20375" lon="0.75655">
        <ele>146.2578125</ele>
        <time>2015-03-26T15:23:50Z</time>
      </trkpt>
      <trkpt lat="44.20374" lon="0.75647">
        <ele>145.29638671875</ele>
        <time>2015-03-26T15:23:55Z</time>
      </trkpt>
      <trkpt lat="44.20374" lon="0.75643">
        <ele>144.33520507812</ele>
        <time>2015-03-26T15:23:58Z</time>
      </trkpt>
      <trkpt lat="44.20372" lon="0.75622">
        <ele>144.81579589844</ele>
        <time>2015-03-26T15:24:14Z</time>
      </trkpt>
      <trkpt lat="44.20365" lon="0.75596">
        <ele>143.85437011719</ele>
        <time>2015-03-26T15:24:33Z</time>
      </trkpt>
      <trkpt lat="44.20361" lon="0.75575">
        <ele>146.73840332031</ele>
        <time>2015-03-26T15:24:48Z</time>
      </trkpt>
      <trkpt lat="44.20355" lon="0.75541">
        <ele>150.58361816406</ele>
        <time>2015-03-26T15:25:09Z</time>
      </trkpt>
      <trkpt lat="44.20348" lon="0.75509">
        <ele>151.544921875</ele>
        <time>2015-03-26T15:25:32Z</time>
      </trkpt>
      <trkpt lat="44.20349" lon="0.75497">
        <ele>152.50634765625</ele>
        <time>2015-03-26T15:25:47Z</time>
      </trkpt>
      <trkpt lat="44.2035" lon="0.75497">
        <ele>152.50634765625</ele>
        <time>2015-03-26T15:25:53Z</time>
      </trkpt>
      <trkpt lat="44.2035" lon="0.75495">
        <ele>151.06420898438</ele>
        <time>2015-03-26T15:25:59Z</time>
      </trkpt>
      <trkpt lat="44.20353" lon="0.75497">
        <ele>154.42895507812</ele>
        <time>2015-03-26T15:26:18Z</time>
      </trkpt>
      <trkpt lat="44.20354" lon="0.75498">
        <ele>152.98693847656</ele>
        <time>2015-03-26T15:26:47Z</time>
      </trkpt>
      <trkpt lat="44.20354" lon="0.75479">
        <ele>152.98693847656</ele>
        <time>2015-03-26T15:27:20Z</time>
      </trkpt>
      <trkpt lat="44.20354" lon="0.75474">
        <ele>151.544921875</ele>
        <time>2015-03-26T15:27:28Z</time>
      </trkpt>
      <trkpt lat="44.20356" lon="0.75468">
        <ele>153.46765136719</ele>
        <time>2015-03-26T15:27:32Z</time>
      </trkpt>
      <trkpt lat="44.20356" lon="0.75464">
        <ele>153.94836425781</ele>
        <time>2015-03-26T15:27:34Z</time>
      </trkpt>
      <trkpt lat="44.20364" lon="0.75433">
        <ele>157.31286621094</ele>
        <time>2015-03-26T15:27:54Z</time>
      </trkpt>
      <trkpt lat="44.20371" lon="0.75405">
        <ele>156.83215332031</ele>
        <time>2015-03-26T15:28:12Z</time>
      </trkpt>
      <trkpt lat="44.20383" lon="0.75373">
        <ele>156.83215332031</ele>
        <time>2015-03-26T15:28:35Z</time>
      </trkpt>
      <trkpt lat="44.20396" lon="0.75341">
        <ele>155.87097167969</ele>
        <time>2015-03-26T15:28:58Z</time>
      </trkpt>
      <trkpt lat="44.20413" lon="0.75304">
        <ele>157.79357910156</ele>
        <time>2015-03-26T15:29:25Z</time>
      </trkpt>
      <trkpt lat="44.20429" lon="0.75272">
        <ele>155.87097167969</ele>
        <time>2015-03-26T15:29:49Z</time>
      </trkpt>
      <trkpt lat="44.20445" lon="0.7524">
        <ele>154.42895507812</ele>
        <time>2015-03-26T15:30:14Z</time>
      </trkpt>
      <trkpt lat="44.2045" lon="0.75233">
        <ele>153.46765136719</ele>
        <time>2015-03-26T15:30:20Z</time>
      </trkpt>
      <trkpt lat="44.20467" lon="0.75203">
        <ele>151.544921875</ele>
        <time>2015-03-26T15:30:45Z</time>
      </trkpt>
      <trkpt lat="44.20488" lon="0.75172">
        <ele>151.06420898438</ele>
        <time>2015-03-26T15:31:12Z</time>
      </trkpt>
      <trkpt lat="44.20506" lon="0.7516">
        <ele>150.10302734375</ele>
        <time>2015-03-26T15:31:31Z</time>
      </trkpt>
      <trkpt lat="44.20509" lon="0.75156">
        <ele>150.10302734375</ele>
        <time>2015-03-26T15:31:35Z</time>
      </trkpt>
      <trkpt lat="44.20524" lon="0.75141">
        <ele>150.10302734375</ele>
        <time>2015-03-26T15:31:55Z</time>
      </trkpt>
      <trkpt lat="44.20532" lon="0.75133">
        <ele>152.50634765625</ele>
        <time>2015-03-26T15:32:09Z</time>
      </trkpt>
      <trkpt lat="44.20544" lon="0.75114">
        <ele>153.94836425781</ele>
        <time>2015-03-26T15:32:28Z</time>
      </trkpt>
      <trkpt lat="44.20557" lon="0.75096">
        <ele>155.87097167969</ele>
        <time>2015-03-26T15:32:48Z</time>
      </trkpt>
      <trkpt lat="44.20576" lon="0.75072">
        <ele>159.71618652344</ele>
        <time>2015-03-26T15:33:13Z</time>
      </trkpt>
      <trkpt lat="44.206" lon="0.75039">
        <ele>156.83215332031</ele>
        <time>2015-03-26T15:33:43Z</time>
      </trkpt>
      <trkpt lat="44.20612" lon="0.75022">
        <ele>154.42895507812</ele>
        <time>2015-03-26T15:33:59Z</time>
      </trkpt>
      <trkpt lat="44.20624" lon="0.75008">
        <ele>152.50634765625</ele>
        <time>2015-03-26T15:34:13Z</time>
      </trkpt>
      <trkpt lat="44.20618" lon="0.74973">
        <ele>155.87097167969</ele>
        <time>2015-03-26T15:34:37Z</time>
      </trkpt>
      <trkpt lat="44.20609" lon="0.7494">
        <ele>155.87097167969</ele>
        <time>2015-03-26T15:35:01Z</time>
      </trkpt>
      <trkpt lat="44.20596" lon="0.74902">
        <ele>159.23547363281</ele>
        <time>2015-03-26T15:35:28Z</time>
      </trkpt>
      <trkpt lat="44.20587" lon="0.74885">
        <ele>158.75476074219</ele>
        <time>2015-03-26T15:35:43Z</time>
      </trkpt>
      <trkpt lat="44.2058" lon="0.7487">
        <ele>159.23547363281</ele>
        <time>2015-03-26T15:35:56Z</time>
      </trkpt>
      <trkpt lat="44.2058" lon="0.74854">
        <ele>160.67749023438</ele>
        <time>2015-03-26T15:36:12Z</time>
      </trkpt>
      <trkpt lat="44.20594" lon="0.74853">
        <ele>160.19689941406</ele>
        <time>2015-03-26T15:36:27Z</time>
      </trkpt>
      <trkpt lat="44.206" lon="0.74852">
        <ele>160.19689941406</ele>
        <time>2015-03-26T15:36:34Z</time>
      </trkpt>
      <trkpt lat="44.2062" lon="0.7485">
        <ele>160.67749023438</ele>
        <time>2015-03-26T15:36:53Z</time>
      </trkpt>
      <trkpt lat="44.20623" lon="0.7485">
        <ele>161.158203125</ele>
        <time>2015-03-26T15:36:56Z</time>
      </trkpt>
      <trkpt lat="44.20631" lon="0.74849">
        <ele>159.71618652344</ele>
        <time>2015-03-26T15:37:04Z</time>
      </trkpt>
      <trkpt lat="44.20635" lon="0.74849">
        <ele>160.19689941406</ele>
        <time>2015-03-26T15:37:07Z</time>
      </trkpt>
      <trkpt lat="44.20658" lon="0.74844">
        <ele>161.63891601562</ele>
        <time>2015-03-26T15:37:31Z</time>
      </trkpt>
      <trkpt lat="44.2067" lon="0.74833">
        <ele>162.11950683594</ele>
        <time>2015-03-26T15:37:52Z</time>
      </trkpt>
      <trkpt lat="44.20674" lon="0.74823">
        <ele>162.11950683594</ele>
        <time>2015-03-26T15:38:13Z</time>
      </trkpt>
      <trkpt lat="44.20679" lon="0.74782">
        <ele>160.67749023438</ele>
        <time>2015-03-26T15:38:39Z</time>
      </trkpt>
      <trkpt lat="44.20686" lon="0.74735">
        <ele>160.19689941406</ele>
        <time>2015-03-26T15:39:10Z</time>
      </trkpt>
      <trkpt lat="44.20686" lon="0.74701">
        <ele>159.71618652344</ele>
        <time>2015-03-26T15:39:31Z</time>
      </trkpt>
      <trkpt lat="44.20686" lon="0.74677">
        <ele>158.75476074219</ele>
        <time>2015-03-26T15:39:47Z</time>
      </trkpt>
      <trkpt lat="44.20685" lon="0.74629">
        <ele>157.31286621094</ele>
        <time>2015-03-26T15:40:18Z</time>
      </trkpt>
      <trkpt lat="44.20685" lon="0.74569">
        <ele>153.94836425781</ele>
        <time>2015-03-26T15:40:53Z</time>
      </trkpt>
      <trkpt lat="44.20685" lon="0.74515">
        <ele>152.02575683594</ele>
        <time>2015-03-26T15:41:27Z</time>
      </trkpt>
      <trkpt lat="44.20689" lon="0.74455">
        <ele>148.66101074219</ele>
        <time>2015-03-26T15:42:04Z</time>
      </trkpt>
      <trkpt lat="44.20698" lon="0.74413">
        <ele>148.66101074219</ele>
        <time>2015-03-26T15:42:33Z</time>
      </trkpt>
      <trkpt lat="44.20701" lon="0.74399">
        <ele>147.69970703125</ele>
        <time>2015-03-26T15:42:42Z</time>
      </trkpt>
      <trkpt lat="44.20698" lon="0.74374">
        <ele>145.77709960938</ele>
        <time>2015-03-26T15:43:03Z</time>
      </trkpt>
      <trkpt lat="44.20696" lon="0.74361">
        <ele>143.85437011719</ele>
        <time>2015-03-26T15:43:19Z</time>
      </trkpt>
      <trkpt lat="44.20704" lon="0.74344">
        <ele>140.00915527344</ele>
        <time>2015-03-26T15:43:39Z</time>
      </trkpt>
      <trkpt lat="44.20714" lon="0.74328">
        <ele>138.56726074219</ele>
        <time>2015-03-26T15:43:55Z</time>
      </trkpt>
      <trkpt lat="44.2072" lon="0.74319">
        <ele>135.68310546875</ele>
        <time>2015-03-26T15:44:05Z</time>
      </trkpt>
      <trkpt lat="44.20726" lon="0.74306">
        <ele>131.35729980469</ele>
        <time>2015-03-26T15:44:21Z</time>
      </trkpt>
      <trkpt lat="44.20738" lon="0.74279">
        <ele>124.62805175781</ele>
        <time>2015-03-26T15:44:50Z</time>
      </trkpt>
      <trkpt lat="44.20751" lon="0.74256">
        <ele>117.41821289062</ele>
        <time>2015-03-26T15:45:13Z</time>
      </trkpt>
      <trkpt lat="44.2076" lon="0.74245">
        <ele>115.49560546875</ele>
        <time>2015-03-26T15:45:28Z</time>
      </trkpt>
      <trkpt lat="44.20768" lon="0.74233">
        <ele>112.61157226562</ele>
        <time>2015-03-26T15:45:42Z</time>
      </trkpt>
      <trkpt lat="44.20778" lon="0.74217">
        <ele>109.24694824219</ele>
        <time>2015-03-26T15:46:00Z</time>
      </trkpt>
      <trkpt lat="44.20786" lon="0.74209">
        <ele>106.84362792969</ele>
        <time>2015-03-26T15:46:17Z</time>
      </trkpt>
      <trkpt lat="44.20791" lon="0.74202">
        <ele>103.95971679688</ele>
        <time>2015-03-26T15:46:32Z</time>
      </trkpt>
      <trkpt lat="44.20795" lon="0.74194">
        <ele>103.95971679688</ele>
        <time>2015-03-26T15:46:47Z</time>
      </trkpt>
      <trkpt lat="44.20807" lon="0.74184">
        <ele>103.47900390625</ele>
        <time>2015-03-26T15:47:07Z</time>
      </trkpt>
      <trkpt lat="44.20819" lon="0.74172">
        <ele>103.95971679688</ele>
        <time>2015-03-26T15:47:22Z</time>
      </trkpt>
      <trkpt lat="44.20826" lon="0.74165">
        <ele>103.47900390625</ele>
        <time>2015-03-26T15:47:31Z</time>
      </trkpt>
      <trkpt lat="44.20829" lon="0.74153">
        <ele>98.19189453125</ele>
        <time>2015-03-26T15:47:45Z</time>
      </trkpt>
      <trkpt lat="44.20835" lon="0.74144">
        <ele>95.788452148438</ele>
        <time>2015-03-26T15:47:57Z</time>
      </trkpt>
      <trkpt lat="44.2084" lon="0.74135">
        <ele>90.501342773438</ele>
        <time>2015-03-26T15:48:11Z</time>
      </trkpt>
      <trkpt lat="44.20848" lon="0.74122">
        <ele>86.17529296875</ele>
        <time>2015-03-26T15:48:26Z</time>
      </trkpt>
      <trkpt lat="44.20852" lon="0.74122">
        <ele>84.7333984375</ele>
        <time>2015-03-26T15:48:32Z</time>
      </trkpt>
      <trkpt lat="44.20858" lon="0.7412">
        <ele>82.810791015625</ele>
        <time>2015-03-26T15:48:39Z</time>
      </trkpt>
      <trkpt lat="44.20872" lon="0.74113">
        <ele>79.926635742188</ele>
        <time>2015-03-26T15:48:53Z</time>
      </trkpt>
      <trkpt lat="44.20894" lon="0.74103">
        <ele>77.5234375</ele>
        <time>2015-03-26T15:49:14Z</time>
      </trkpt>
      <trkpt lat="44.20915" lon="0.74093">
        <ele>77.042846679688</ele>
        <time>2015-03-26T15:49:34Z</time>
      </trkpt>
      <trkpt lat="44.20936" lon="0.7408">
        <ele>78.965454101562</ele>
        <time>2015-03-26T15:49:55Z</time>
      </trkpt>
      <trkpt lat="44.20951" lon="0.74066">
        <ele>80.407470703125</ele>
        <time>2015-03-26T15:50:09Z</time>
      </trkpt>
      <trkpt lat="44.20968" lon="0.7405">
        <ele>79.446044921875</ele>
        <time>2015-03-26T15:50:30Z</time>
      </trkpt>
      <trkpt lat="44.2098" lon="0.74035">
        <ele>79.926635742188</ele>
        <time>2015-03-26T15:50:46Z</time>
      </trkpt>
      <trkpt lat="44.20999" lon="0.74022">
        <ele>82.810791015625</ele>
        <time>2015-03-26T15:51:03Z</time>
      </trkpt>
      <trkpt lat="44.21013" lon="0.74007">
        <ele>86.656005859375</ele>
        <time>2015-03-26T15:51:20Z</time>
      </trkpt>
      <trkpt lat="44.21029" lon="0.73992">
        <ele>86.17529296875</ele>
        <time>2015-03-26T15:51:39Z</time>
      </trkpt>
      <trkpt lat="44.21047" lon="0.73973">
        <ele>83.291381835938</ele>
        <time>2015-03-26T15:52:01Z</time>
      </trkpt>
      <trkpt lat="44.21048" lon="0.73973">
        <ele>83.291381835938</ele>
        <time>2015-03-26T15:52:02Z</time>
      </trkpt>
      <trkpt lat="44.21057" lon="0.73973">
        <ele>83.291381835938</ele>
        <time>2015-03-26T15:52:13Z</time>
      </trkpt>
      <trkpt lat="44.21064" lon="0.73983">
        <ele>83.291381835938</ele>
        <time>2015-03-26T15:52:23Z</time>
      </trkpt>
      <trkpt lat="44.21065" lon="0.73985">
        <ele>83.291381835938</ele>
        <time>2015-03-26T15:52:25Z</time>
      </trkpt>
      <trkpt lat="44.21081" lon="0.74005">
        <ele>83.291381835938</ele>
        <time>2015-03-26T15:52:45Z</time>
      </trkpt>
      <trkpt lat="44.21082" lon="0.74005">
        <ele>83.77197265625</ele>
        <time>2015-03-26T15:52:46Z</time>
      </trkpt>
      <trkpt lat="44.21092" lon="0.74019">
        <ele>83.77197265625</ele>
        <time>2015-03-26T15:53:01Z</time>
      </trkpt>
      <trkpt lat="44.21111" lon="0.74041">
        <ele>82.330078125</ele>
        <time>2015-03-26T15:53:24Z</time>
      </trkpt>
      <trkpt lat="44.21119" lon="0.74052">
        <ele>81.849365234375</ele>
        <time>2015-03-26T15:53:34Z</time>
      </trkpt>
      <trkpt lat="44.21135" lon="0.74071">
        <ele>81.368774414062</ele>
        <time>2015-03-26T15:53:53Z</time>
      </trkpt>
      <trkpt lat="44.21156" lon="0.74091">
        <ele>85.213989257812</ele>
        <time>2015-03-26T15:54:18Z</time>
      </trkpt>
      <trkpt lat="44.21159" lon="0.74095">
        <ele>84.252685546875</ele>
        <time>2015-03-26T15:54:24Z</time>
      </trkpt>
      <trkpt lat="44.2116" lon="0.74098">
        <ele>84.252685546875</ele>
        <time>2015-03-26T15:54:27Z</time>
      </trkpt>
      <trkpt lat="44.21162" lon="0.74102">
        <ele>83.77197265625</ele>
        <time>2015-03-26T15:54:30Z</time>
      </trkpt>
      <trkpt lat="44.2117" lon="0.74112">
        <ele>83.291381835938</ele>
        <time>2015-03-26T15:54:41Z</time>
      </trkpt>
      <trkpt lat="44.21178" lon="0.7413">
        <ele>82.330078125</ele>
        <time>2015-03-26T15:54:57Z</time>
      </trkpt>
      <trkpt lat="44.21179" lon="0.74133">
        <ele>82.330078125</ele>
        <time>2015-03-26T15:55:00Z</time>
      </trkpt>
      <trkpt lat="44.21197" lon="0.74158">
        <ele>83.291381835938</ele>
        <time>2015-03-26T15:55:24Z</time>
      </trkpt>
      <trkpt lat="44.21206" lon="0.74177">
        <ele>82.810791015625</ele>
        <time>2015-03-26T15:55:40Z</time>
      </trkpt>
      <trkpt lat="44.2121" lon="0.74188">
        <ele>80.88818359375</ele>
        <time>2015-03-26T15:55:48Z</time>
      </trkpt>
      <trkpt lat="44.21223" lon="0.74213">
        <ele>82.330078125</ele>
        <time>2015-03-26T15:56:09Z</time>
      </trkpt>
      <trkpt lat="44.21234" lon="0.74226">
        <ele>83.291381835938</ele>
        <time>2015-03-26T15:56:23Z</time>
      </trkpt>
      <trkpt lat="44.21244" lon="0.74255">
        <ele>84.252685546875</ele>
        <time>2015-03-26T15:56:43Z</time>
      </trkpt>
      <trkpt lat="44.21254" lon="0.74274">
        <ele>82.330078125</ele>
        <time>2015-03-26T15:57:02Z</time>
      </trkpt>
      <trkpt lat="44.21257" lon="0.7429">
        <ele>83.77197265625</ele>
        <time>2015-03-26T15:57:16Z</time>
      </trkpt>
      <trkpt lat="44.21261" lon="0.74301">
        <ele>80.88818359375</ele>
        <time>2015-03-26T15:57:30Z</time>
      </trkpt>
      <trkpt lat="44.21263" lon="0.74304">
        <ele>80.407470703125</ele>
        <time>2015-03-26T15:57:34Z</time>
      </trkpt>
      <trkpt lat="44.21268" lon="0.7431">
        <ele>79.926635742188</ele>
        <time>2015-03-26T15:57:41Z</time>
      </trkpt>
      <trkpt lat="44.21278" lon="0.74326">
        <ele>79.446044921875</ele>
        <time>2015-03-26T15:57:59Z</time>
      </trkpt>
      <trkpt lat="44.21278" lon="0.74343">
        <ele>80.88818359375</ele>
        <time>2015-03-26T15:58:16Z</time>
      </trkpt>
      <trkpt lat="44.21282" lon="0.74348">
        <ele>82.330078125</ele>
        <time>2015-03-26T15:58:23Z</time>
      </trkpt>
      <trkpt lat="44.21283" lon="0.74364">
        <ele>82.330078125</ele>
        <time>2015-03-26T15:58:35Z</time>
      </trkpt>
      <trkpt lat="44.2129" lon="0.74376">
        <ele>82.810791015625</ele>
        <time>2015-03-26T15:58:44Z</time>
      </trkpt>
      <trkpt lat="44.21283" lon="0.74381">
        <ele>85.694580078125</ele>
        <time>2015-03-26T15:58:59Z</time>
      </trkpt>
      <trkpt lat="44.2128" lon="0.74381">
        <ele>85.694580078125</ele>
        <time>2015-03-26T15:59:11Z</time>
      </trkpt>
      <trkpt lat="44.21274" lon="0.74383">
        <ele>86.17529296875</ele>
        <time>2015-03-26T15:59:15Z</time>
      </trkpt>
      <trkpt lat="44.21262" lon="0.74398">
        <ele>84.252685546875</ele>
        <time>2015-03-26T15:59:32Z</time>
      </trkpt>
      <trkpt lat="44.21257" lon="0.74405">
        <ele>83.291381835938</ele>
        <time>2015-03-26T15:59:48Z</time>
      </trkpt>
    </trkseg>
  </trk>
</gpx>